Time;durP1;ratioP1;P1;durP2;ratioP2;P2;SDS_P1;SDS_P2;PMS_P1;PMS_P2;Temp;Humidity;BMP_temperature;BMP_pressure;BME280_temperature;BME280_humidity;BME280_pressure;Samples;Min_cycle;Max_cycle;Signal;HPM_P1;HPM_P2
2023/02/24 00:01:12;;;;;;;29.95;18.80;;;;;;;6.66;100.00;93053.16;5070691;28;20102;-71
2023/02/24 00:03:40;;;;;;;37.05;23.77;;;;;;;6.72;100.00;93053.38;5071119;28;20056;-71
2023/02/24 00:06:10;;;;;;;50.58;30.20;;;;;;;6.73;100.00;93047.28;5070865;28;20071;-71
2023/02/24 00:08:37;;;;;;;49.55;29.92;;;;;;;6.78;100.00;93047.50;5070597;28;20033;-71
2023/02/24 00:11:11;;;;;;;55.92;32.30;;;;;;;6.77;100.00;93049.25;5071039;28;20105;-71
2023/02/24 00:13:38;;;;;;;57.63;33.80;;;;;;;6.80;100.00;93053.19;5071016;28;20413;-71
2023/02/24 00:16:06;;;;;;;47.83;29.10;;;;;;;6.77;100.00;93038.28;5070773;28;20109;-71
2023/02/24 00:18:34;;;;;;;50.50;31.02;;;;;;;6.74;100.00;93044.53;5070545;28;20493;-72
2023/02/24 00:21:07;;;;;;;47.88;29.58;;;;;;;6.79;100.00;93042.22;5070664;28;20052;-71
2023/02/24 00:23:36;;;;;;;50.75;30.25;;;;;;;6.85;100.00;93045.00;5069796;28;20209;-71
2023/02/24 00:26:02;;;;;;;51.40;29.98;;;;;;;6.92;100.00;93041.47;5070840;28;20360;-71
2023/02/24 00:28:30;;;;;;;43.28;27.50;;;;;;;6.88;100.00;93036.94;5070079;28;20501;-71
2023/02/24 00:31:04;;;;;;;47.80;29.23;;;;;;;6.94;100.00;93038.72;5070909;28;20052;-71
2023/02/24 00:33:32;;;;;;;43.00;26.92;;;;;;;7.00;100.00;93037.97;5070398;28;20105;-71
2023/02/24 00:36:05;;;;;;;35.97;22.25;;;;;;;6.98;100.00;93031.47;5070698;28;20052;-71
2023/02/24 00:38:34;;;;;;;30.58;19.55;;;;;;;6.89;100.00;93030.88;5070061;28;20056;-71
2023/02/24 00:41:02;;;;;;;34.22;20.02;;;;;;;6.80;100.00;93027.66;5070144;28;20048;-71
2023/02/24 00:43:30;;;;;;;33.70;20.90;;;;;;;6.75;100.00;93023.13;5069939;28;20036;-71
2023/02/24 00:46:01;;;;;;;33.97;21.67;;;;;;;6.81;100.00;93022.38;5069906;28;20500;-71
2023/02/24 00:48:28;;;;;;;35.55;21.55;;;;;;;6.86;100.00;93011.59;5069706;28;20123;-71
2023/02/24 00:50:55;;;;;;;33.88;20.65;;;;;;;6.52;100.00;93021.66;5070012;28;20052;-71
2023/02/24 00:53:22;;;;;;;33.80;20.67;;;;;;;6.63;100.00;93011.91;5069788;28;20040;-71
2023/02/24 00:55:58;;;;;;;35.55;21.98;;;;;;;6.73;100.00;93003.88;5069992;28;20056;-71
2023/02/24 00:58:28;;;;;;;35.67;21.50;;;;;;;6.76;100.00;93008.63;5070105;28;20036;-71
2023/02/24 01:00:57;;;;;;;37.42;20.92;;;;;;;6.86;100.00;93009.06;5069686;28;20094;-71
2023/02/24 01:03:24;;;;;;;37.10;21.48;;;;;;;6.90;100.00;92999.25;5067436;28;20646;-71
2023/02/24 01:05:52;;;;;;;36.22;21.92;;;;;;;6.89;100.00;93008.66;5065663;28;20049;-71
2023/02/24 01:08:21;;;;;;;39.72;23.65;;;;;;;6.89;100.00;92995.91;5069906;28;20052;-72
2023/02/24 01:12:00;;;;;;;45.75;26.15;;;;;;;6.90;100.00;92997.47;5069718;28;20066;-71
2023/02/24 01:13:42;;;;;;;44.40;27.45;;;;;;;6.86;100.00;92990.38;5068945;28;20052;-71
2023/02/24 01:16:12;;;;;;;49.45;29.25;;;;;;;6.88;100.00;92988.41;5069725;28;20405;-71
2023/02/24 01:18:39;;;;;;;43.97;26.08;;;;;;;6.81;100.00;92988.41;5069544;28;20048;-72
2023/02/24 01:21:05;;;;;;;44.45;26.55;;;;;;;6.70;100.00;92971.88;5069356;28;20052;-72
2023/02/24 01:23:33;;;;;;;47.03;27.42;;;;;;;6.81;100.00;92994.28;5069108;28;20056;-71
2023/02/24 01:25:59;;;;;;;56.28;31.23;;;;;;;6.77;100.00;93002.53;5069658;28;20048;-71
2023/02/24 01:28:26;;;;;;;57.13;32.25;;;;;;;6.77;100.00;92994.88;5069267;28;20055;-71
2023/02/24 01:30:53;;;;;;;61.28;34.47;;;;;;;6.78;100.00;92978.56;5069500;28;20467;-72
2023/02/24 01:33:21;;;;;;;55.72;33.92;;;;;;;6.81;100.00;92981.53;5069532;28;20412;-71
2023/02/24 01:35:48;;;;;;;60.40;36.63;;;;;;;6.87;100.00;92977.44;5069314;28;20102;-71
2023/02/24 01:38:21;;;;;;;60.78;37.38;;;;;;;6.81;100.00;92975.66;5068916;28;20114;-71
2023/02/24 01:40:56;;;;;;;63.13;36.83;;;;;;;6.82;100.00;92974.66;5068972;28;20092;-71
2023/02/24 01:43:22;;;;;;;62.30;36.72;;;;;;;6.64;100.00;92976.00;5069184;28;20036;-71
2023/02/24 01:45:50;;;;;;;62.47;37.88;;;;;;;6.47;100.00;92978.06;5068979;28;20090;-71
2023/02/24 01:48:17;;;;;;;58.35;37.70;;;;;;;6.66;100.00;92985.97;5065235;28;20052;-71
2023/02/24 01:50:46;;;;;;;71.88;40.47;;;;;;;6.35;100.00;92962.50;5060131;28;20105;-71
2023/02/24 01:53:13;;;;;;;68.65;37.90;;;;;;;6.49;100.00;92973.56;5069124;28;20040;-71
2023/02/24 01:55:45;;;;;;;76.95;45.85;;;;;;;6.42;100.00;92952.34;5069119;28;20542;-71
2023/02/24 01:58:19;;;;;;;69.78;37.63;;;;;;;6.41;100.00;92978.84;5068597;28;20511;-72
2023/02/24 02:00:46;;;;;;;69.53;37.72;;;;;;;6.30;100.00;92969.16;5068879;28;20106;-71
2023/02/24 02:03:19;;;;;;;69.22;37.85;;;;;;;6.22;100.00;92968.34;5068977;28;20063;-71
2023/02/24 02:05:47;;;;;;;63.00;37.50;;;;;;;6.23;100.00;92969.91;5069083;28;20096;-71
2023/02/24 02:08:16;;;;;;;66.97;37.40;;;;;;;6.36;100.00;92968.41;5069234;28;20051;-71
2023/02/24 02:10:44;;;;;;;60.70;36.08;;;;;;;6.43;100.00;92971.00;5069156;28;20059;-71
2023/02/24 02:13:13;;;;;;;58.50;34.38;;;;;;;6.48;100.00;92968.66;5068995;28;20500;-71
2023/02/24 02:15:50;;;;;;;61.88;37.35;;;;;;;6.42;100.00;92970.19;5069506;28;20054;-71
2023/02/24 02:18:24;;;;;;;58.10;34.90;;;;;;;6.29;100.00;92958.16;5073266;28;20052;-71
2023/02/24 02:21:23;;;;;;;60.65;36.10;;;;;;;6.47;100.00;92967.88;5072671;28;20098;-71
2023/02/24 02:24:18;;;;;;;62.08;38.05;;;;;;;6.33;100.00;92974.66;5072695;28;20082;-71
2023/02/24 02:27:10;;;;;;;66.85;39.05;;;;;;;6.32;100.00;92965.44;5072659;28;20455;-71
2023/02/24 02:29:57;;;;;;;63.50;36.53;;;;;;;6.28;100.00;92962.50;5073125;28;20045;-71
2023/02/24 02:33:00;;;;;;;58.88;35.05;;;;;;;6.40;100.00;92969.59;5073114;28;20052;-72
2023/02/24 02:35:35;;;;;;;63.00;35.00;;;;;;;6.44;100.00;92970.81;5072422;28;20044;-71
2023/02/24 02:38:13;;;;;;;63.75;35.78;;;;;;;6.51;100.00;92963.97;5072854;28;20074;-71
2023/02/24 02:40:46;;;;;;;61.17;34.53;;;;;;;6.54;100.00;92967.91;5048992;28;20048;-71
2023/02/24 02:43:18;;;;;;;64.32;36.20;;;;;;;6.59;100.00;92968.13;5072456;28;20516;-71
2023/02/24 02:45:54;;;;;;;63.15;36.13;;;;;;;6.29;100.00;92958.16;5072629;28;20065;-72
2023/02/24 02:48:28;;;;;;;64.25;34.17;;;;;;;6.45;100.00;92966.47;5072465;28;20070;-71
2023/02/24 02:51:03;;;;;;;56.22;32.70;;;;;;;6.43;100.00;92963.34;5071998;28;20041;-71
2023/02/24 02:53:36;;;;;;;54.17;31.13;;;;;;;6.36;100.00;92958.19;5072280;28;20044;-71
2023/02/24 02:56:10;;;;;;;63.75;36.10;;;;;;;6.18;100.00;92954.41;5071913;28;20855;-71
2023/02/24 02:58:42;;;;;;;59.85;34.75;;;;;;;6.27;100.00;92960.91;5045547;28;20094;-71
2023/02/24 03:01:11;;;;;;;64.15;35.95;;;;;;;6.38;100.00;92969.00;5071579;28;20558;-71
2023/02/24 03:03:44;;;;;;;62.58;35.58;;;;;;;6.34;100.00;92963.47;5072525;28;20048;-71
2023/02/24 03:06:16;;;;;;;63.20;36.10;;;;;;;6.14;100.00;92960.84;5071867;28;20086;-72
2023/02/24 03:08:51;;;;;;;65.07;36.60;;;;;;;6.12;100.00;92965.34;5071899;28;20051;-71
2023/02/24 03:11:20;;;;;;;61.53;34.83;;;;;;;5.96;100.00;92951.88;5058101;28;20049;-72
2023/02/24 03:13:50;;;;;;;66.07;35.80;;;;;;;5.83;100.00;92969.66;5071876;28;20056;-71
2023/02/24 03:16:19;;;;;;;58.38;33.50;;;;;;;5.81;100.00;92974.94;5071578;28;20097;-71
2023/02/24 03:18:52;;;;;;;56.97;33.13;;;;;;;5.96;100.00;92974.03;5071871;28;20438;-71
2023/02/24 03:21:28;;;;;;;60.60;33.55;;;;;;;5.73;100.00;92958.03;5071771;28;20074;-71
2023/02/24 03:23:55;;;;;;;53.05;31.73;;;;;;;5.87;100.00;92975.94;5071755;28;20088;-72
2023/02/24 03:26:28;;;;;;;55.67;32.28;;;;;;;6.08;100.00;92967.50;5071852;28;20048;-71
2023/02/24 03:29:02;;;;;;;55.03;32.80;;;;;;;6.22;100.00;92965.81;5070688;28;20459;-71
2023/02/24 03:31:35;;;;;;;52.92;32.58;;;;;;;6.38;100.00;92969.00;5071328;28;20049;-72
2023/02/24 03:34:07;;;;;;;54.05;31.45;;;;;;;6.50;100.00;92972.59;5071919;28;20048;-71
2023/02/24 03:36:35;;;;;;;57.15;31.77;;;;;;;6.63;100.00;92976.16;5071437;28;20052;-71
2023/02/24 03:39:04;;;;;;;53.40;31.30;;;;;;;6.70;100.00;92963.44;5071487;28;20049;-71
2023/02/24 03:41:37;;;;;;;52.35;29.50;;;;;;;6.79;100.00;92968.19;5070969;28;20412;-71
2023/02/24 03:44:08;;;;;;;51.22;30.17;;;;;;;6.86;100.00;92973.31;5071236;28;20048;-71
2023/02/24 03:46:35;;;;;;;53.45;29.23;;;;;;;6.93;100.00;92976.66;5071076;28;20052;-71
2023/02/24 03:49:08;;;;;;;49.67;28.15;;;;;;;7.00;100.00;92973.34;5071444;28;20044;-70
2023/02/24 03:51:36;;;;;;;47.83;29.20;;;;;;;7.01;100.00;92957.03;5071422;28;20090;-71
2023/02/24 03:54:18;;;;;;;44.90;27.10;;;;;;;7.07;100.00;92959.59;5071125;28;20048;-71
2023/02/24 03:56:56;;;;;;;44.63;26.90;;;;;;;7.12;100.00;92961.56;5058169;28;20044;-71
2023/02/24 03:59:40;;;;;;;38.75;24.58;;;;;;;7.20;100.00;92968.25;5070685;28;20044;-71
2023/02/24 04:02:14;;;;;;;39.42;23.48;;;;;;;7.17;100.00;92961.78;5071120;28;20447;-71
2023/02/24 04:04:46;;;;;;;39.70;23.45;;;;;;;7.31;100.00;92972.78;5070451;28;20049;-71
2023/02/24 04:07:25;;;;;;;40.28;22.80;;;;;;;7.33;100.00;92970.81;5071397;28;20040;-71
2023/02/24 04:10:03;;;;;;;34.25;21.00;;;;;;;7.37;100.00;92965.34;5058942;28;20052;-71
2023/02/24 04:12:37;;;;;;;32.70;19.98;;;;;;;7.42;100.00;92962.97;5070907;28;20044;-71
2023/02/24 04:15:11;;;;;;;22.10;15.30;;;;;;;7.46;100.00;92966.72;5059531;28;20045;-71
2023/02/24 04:17:42;;;;;;;25.52;16.10;;;;;;;7.49;100.00;92969.66;5069649;28;20052;-71
2023/02/24 04:20:15;;;;;;;34.75;21.90;;;;;;;7.44;100.00;92961.81;5070861;28;20098;-71
2023/02/24 04:22:48;;;;;;;37.75;24.38;;;;;;;7.19;100.00;92941.16;5070852;28;20098;-71
2023/02/24 04:25:18;;;;;;;39.85;27.05;;;;;;;7.27;100.00;92963.16;5070563;28;20046;-71
2023/02/24 04:27:47;;;;;;;41.85;26.60;;;;;;;7.20;100.00;92960.59;5070453;28;20048;-71
2023/02/24 04:30:14;;;;;;;44.90;28.02;;;;;;;7.09;100.00;92967.06;5070655;28;20048;-70
2023/02/24 04:32:42;;;;;;;51.80;31.10;;;;;;;6.87;100.00;92956.22;5070759;28;20053;-71
2023/02/24 04:35:12;;;;;;;50.38;27.65;;;;;;;6.84;100.00;92941.28;5070421;28;20046;-70
2023/02/24 04:37:43;;;;;;;46.05;29.08;;;;;;;6.74;100.00;92941.63;5070112;28;20056;-70
2023/02/24 04:40:16;;;;;;;44.90;28.77;;;;;;;6.58;100.00;92961.44;5069731;28;20131;-70
2023/02/24 04:42:47;;;;;;;44.20;28.42;;;;;;;6.50;100.00;92957.28;5048455;28;20060;-70
2023/02/24 04:45:16;;;;;;;57.88;32.70;;;;;;;6.35;100.00;92954.84;5047702;28;20048;-70
2023/02/24 04:47:45;;;;;;;43.97;23.73;;;;;;;6.19;100.00;92940.66;5042525;28;20053;-70
2023/02/24 04:50:21;;;;;;;29.92;18.42;;;;;;;6.21;100.00;92938.69;5041779;28;20398;-70
2023/02/24 04:52:50;;;;;;;44.50;22.23;;;;;;;6.24;100.00;92942.63;5045331;28;20052;-70
2023/02/24 04:55:21;;;;;;;46.35;22.60;;;;;;;6.21;100.00;92956.56;5040916;28;20047;-70
2023/02/24 04:57:48;;;;;;;42.88;22.02;;;;;;;6.11;100.00;92956.13;5044678;28;20185;-71
2023/02/24 05:00:21;;;;;;;25.35;15.05;;;;;;;6.02;100.00;92955.47;5043552;28;20458;-70
2023/02/24 05:02:49;;;;;;;26.65;15.27;;;;;;;5.99;100.00;92953.28;5045800;28;20049;-70
2023/02/24 05:05:16;;;;;;;26.40;14.95;;;;;;;5.93;100.00;92957.34;5041325;28;20468;-70
2023/02/24 05:07:46;;;;;;;44.25;20.60;;;;;;;5.84;100.00;92956.72;5046463;28;20429;-70
2023/02/24 05:10:15;;;;;;;23.75;15.15;;;;;;;5.88;100.00;92959.69;5042807;28;20413;-70
2023/02/24 05:12:44;;;;;;;24.55;15.82;;;;;;;5.88;100.00;92965.56;5053199;28;20044;-71
2023/02/24 05:15:12;;;;;;;24.27;14.13;;;;;;;5.76;100.00;92939.03;5069529;28;20056;-71
2023/02/24 05:17:40;;;;;;;29.23;16.35;;;;;;;6.00;100.00;92967.59;5069495;28;20056;-71
2023/02/24 05:22:54;;;;;;;28.60;16.75;;;;;;;6.09;100.00;92952.97;5060120;28;20057;-71
2023/02/24 05:25:21;;;;;;;29.05;16.80;;;;;;;6.27;100.00;92962.66;5065451;28;20505;-71
2023/02/24 05:27:52;;;;;;;27.25;17.33;;;;;;;6.39;100.00;92973.13;5069483;28;20060;-71
2023/02/24 05:30:19;;;;;;;33.72;20.00;;;;;;;6.44;100.00;92970.81;5055761;28;20566;-72
2023/02/24 05:32:45;;;;;;;34.05;20.58;;;;;;;6.41;100.00;92973.72;5069456;28;20047;-71
2023/02/24 05:35:13;;;;;;;33.05;21.25;;;;;;;6.44;100.00;92970.81;5069164;28;20528;-71
2023/02/24 05:37:41;;;;;;;33.80;22.10;;;;;;;6.49;100.00;92965.91;5069291;28;20505;-71
2023/02/24 05:40:13;;;;;;;36.28;22.38;;;;;;;6.46;100.00;92966.28;5069174;28;20500;-71
2023/02/24 05:42:40;;;;;;;37.97;23.45;;;;;;;6.44;100.00;92970.81;5069247;28;20052;-71
2023/02/24 05:45:10;;;;;;;32.22;21.55;;;;;;;6.51;100.00;92975.91;5069328;28;20046;-72
2023/02/24 05:47:38;;;;;;;37.90;22.88;;;;;;;6.62;100.00;92969.50;5069165;28;20045;-71
2023/02/24 05:50:08;;;;;;;34.25;20.88;;;;;;;6.66;100.00;92968.13;5068713;28;20128;-70
2023/02/24 05:52:36;;;;;;;39.85;23.05;;;;;;;6.72;100.00;92975.03;5068715;28;20045;-71
2023/02/24 05:55:06;;;;;;;43.83;23.08;;;;;;;6.81;100.00;92973.88;5069076;28;20500;-70
2023/02/24 05:57:35;;;;;;;38.50;23.35;;;;;;;6.90;100.00;92977.03;5055839;28;20071;-71
2023/02/24 06:00:13;;;;;;;37.40;22.30;;;;;;;6.97;100.00;92973.72;5069199;28;20314;-70
2023/02/24 06:02:48;;;;;;;37.60;21.17;;;;;;;7.02;100.00;92973.91;5069274;28;20051;-70
2023/02/24 06:05:24;;;;;;;39.10;22.97;;;;;;;7.07;100.00;92977.47;5069208;28;20065;-70
2023/02/24 06:08:01;;;;;;;41.38;22.08;;;;;;;7.08;100.00;92976.50;5068705;28;20045;-71
2023/02/24 06:10:32;;;;;;;40.00;21.92;;;;;;;7.18;100.00;92983.00;5068822;28;20090;-71
2023/02/24 06:12:59;;;;;;;49.17;23.80;;;;;;;7.16;100.00;92980.63;5068747;28;20048;-71
2023/02/24 06:15:26;;;;;;;47.33;26.25;;;;;;;7.16;100.00;92982.41;5060621;28;20439;-71
2023/02/24 06:17:55;;;;;;;44.67;25.27;;;;;;;6.94;100.00;92980.78;5067251;28;20110;-71
2023/02/24 06:20:23;;;;;;;42.67;23.60;;;;;;;6.64;100.00;92972.63;5068486;28;20040;-71
2023/02/24 06:22:53;;;;;;;45.95;25.52;;;;;;;6.78;100.00;93004.09;5068940;28;20165;-71
2023/02/24 06:25:23;;;;;;;40.78;25.08;;;;;;;6.85;100.00;93001.59;5068847;28;20094;-71
2023/02/24 06:27:53;;;;;;;58.85;32.25;;;;;;;6.85;100.00;93002.34;5068766;28;20052;-71
2023/02/24 06:30:22;;;;;;;45.10;27.83;;;;;;;6.82;100.00;92974.66;5062049;28;20047;-71
2023/02/24 06:32:50;;;;;;;44.30;29.65;;;;;;;6.84;100.00;92990.56;5068613;28;20058;-71
2023/02/24 06:35:19;;;;;;;46.97;29.73;;;;;;;6.84;100.00;92995.69;5068215;28;20136;-71
2023/02/24 06:37:47;;;;;;;48.40;27.27;;;;;;;6.94;100.00;92992.75;5068449;28;20447;-71
2023/02/24 06:40:16;;;;;;;42.05;25.35;;;;;;;7.00;100.00;92991.22;5068286;28;20045;-71
2023/02/24 06:42:46;;;;;;;41.70;24.67;;;;;;;7.09;100.00;92993.38;5068634;28;20052;-71
2023/02/24 06:45:14;;;;;;;47.90;31.15;;;;;;;6.95;100.00;92968.81;5068673;28;20045;-71
2023/02/24 06:47:42;;;;;;;51.00;30.67;;;;;;;7.05;100.00;92983.75;5068360;28;20048;-71
2023/02/24 06:50:11;;;;;;;49.38;28.83;;;;;;;6.88;100.00;92985.88;5068492;28;20074;-71
2023/02/24 06:52:39;;;;;;;48.72;28.75;;;;;;;6.92;100.00;92977.66;5068524;28;20048;-71
2023/02/24 06:55:23;;;;;;;48.40;28.00;;;;;;;7.07;100.00;92982.59;5055621;28;20390;-71
2023/02/24 06:57:51;;;;;;;44.00;27.55;;;;;;;7.16;100.00;92977.28;5068421;28;20040;-71
2023/02/24 07:00:20;;;;;;;47.63;28.00;;;;;;;7.22;100.00;92976.50;5068613;28;20558;-71
2023/02/24 07:02:47;;;;;;;48.65;27.55;;;;;;;7.30;100.00;92978.09;5070287;28;20118;-72
2023/02/24 07:05:15;;;;;;;43.03;26.23;;;;;;;7.31;100.00;92966.91;5072217;28;20049;-71
2023/02/24 07:07:44;;;;;;;42.25;25.02;;;;;;;7.40;100.00;92977.72;5071992;28;20488;-71
2023/02/24 07:10:13;;;;;;;44.67;26.27;;;;;;;7.45;100.00;92977.94;5071931;28;20045;-71
2023/02/24 07:12:40;;;;;;;43.80;27.55;;;;;;;7.49;100.00;92963.75;5072330;28;20048;-71
2023/02/24 07:15:08;;;;;;;49.38;28.80;;;;;;;7.52;100.00;92965.94;5071504;28;20059;-71
2023/02/24 07:17:35;;;;;;;54.72;33.53;;;;;;;7.57;100.00;92967.88;5072121;28;20123;-71
2023/02/24 07:20:10;;;;;;;54.13;33.72;;;;;;;7.67;100.00;92967.50;5071546;28;20048;-71
2023/02/24 07:22:36;;;;;;;53.45;32.88;;;;;;;7.70;100.00;92962.78;5071695;28;20147;-71
2023/02/24 07:25:06;;;;;;;55.72;35.33;;;;;;;7.82;100.00;92968.06;5068697;28;20041;-71
2023/02/24 07:27:32;;;;;;;58.92;34.72;;;;;;;7.88;100.00;92969.84;5069951;28;20158;-71
2023/02/24 07:30:04;;;;;;;218.05;119.30;;;;;;;7.94;100.00;92972.59;5071192;28;20436;-71
2023/02/24 07:32:31;;;;;;;100.35;59.33;;;;;;;8.01;100.00;92970.81;5071737;28;20049;-71
2023/02/24 07:34:58;;;;;;;63.92;41.05;;;;;;;7.93;100.00;92953.91;5071085;28;20057;-71
2023/02/24 07:37:26;;;;;;;45.28;29.67;;;;;;;8.03;100.00;92966.28;5071280;28;20044;-71
2023/02/24 07:39:53;;;;;;;76.43;54.33;;;;;;;8.06;100.00;92968.44;5071045;28;20059;-71
2023/02/24 07:42:21;;;;;;;73.55;50.10;;;;;;;8.10;100.00;92964.50;5071401;28;20052;-71
2023/02/24 07:44:48;;;;;;;99.55;68.65;;;;;;;8.12;100.00;92956.63;5071473;28;20102;-71
2023/02/24 07:47:15;;;;;;;81.38;64.47;;;;;;;8.21;100.00;92970.78;5071157;28;20098;-71
2023/02/24 07:49:41;;;;;;;66.22;46.90;;;;;;;8.15;100.00;92959.56;5071386;28;20110;-71
2023/02/24 07:52:10;;;;;;;92.95;71.25;;;;;;;8.18;100.00;92955.06;5071324;28;20106;-71
2023/02/24 07:54:38;;;;;;;76.25;59.38;;;;;;;8.19;100.00;92959.19;5070854;28;20041;-71
2023/02/24 07:57:05;;;;;;;77.28;58.30;;;;;;;8.26;100.00;92957.38;5071241;28;20045;-71
2023/02/24 07:59:45;;;;;;;44.10;30.23;;;;;;;8.23;100.00;92952.66;5070427;28;20045;-71
2023/02/24 08:02:12;;;;;;;34.30;24.02;;;;;;;8.24;100.00;92952.44;5070726;28;20059;-71
2023/02/24 08:04:40;;;;;;;32.22;22.52;;;;;;;8.22;100.00;92948.53;5070912;28;20048;-71
2023/02/24 08:07:13;;;;;;;35.53;25.48;;;;;;;8.23;100.00;92948.31;5070842;28;20059;-71
2023/02/24 08:12:29;;;;;;;36.38;24.10;;;;;;;8.23;100.00;92950.88;5070316;28;20036;-71
2023/02/24 08:14:59;;;;;;;45.83;28.05;;;;;;;8.25;100.00;92943.00;5070154;28;20048;-72
2023/02/24 08:17:26;;;;;;;67.85;45.08;;;;;;;8.26;100.00;92942.03;5070315;28;20489;-71
2023/02/24 08:20:20;;;;;;;43.40;29.58;;;;;;;8.21;100.00;92937.53;5070852;28;20048;-71
2023/02/24 08:22:45;;;;;;;39.17;27.45;;;;;;;8.28;100.00;92932.34;5070081;28;20053;-71
2023/02/24 08:25:17;;;;;;;35.20;24.52;;;;;;;8.27;100.00;92925.69;5070665;28;20048;-71
2023/02/24 08:27:44;;;;;;;40.47;27.38;;;;;;;8.39;100.00;92931.72;5070224;28;20466;-71
2023/02/24 08:30:22;;;;;;;73.57;43.25;;;;;;;8.47;100.00;92927.38;5070183;28;20094;-71
2023/02/24 08:32:55;;;;;;;43.50;28.00;;;;;;;8.52;100.00;92919.91;5070200;28;20048;-71
2023/02/24 08:35:30;;;;;;;35.25;22.52;;;;;;;8.57;100.00;92919.28;5070402;28;20041;-71
2023/02/24 08:38:03;;;;;;;32.03;21.42;;;;;;;8.55;100.00;92915.16;5069754;28;20044;-71
2023/02/24 08:40:48;;;;;;;39.08;26.65;;;;;;;8.65;100.00;92913.94;5070304;28;20127;-71
2023/02/24 08:43:18;;;;;;;33.80;23.10;;;;;;;8.73;100.00;92918.03;5070019;28;20105;-71
2023/02/24 08:45:50;;;;;;;51.50;33.83;;;;;;;8.80;100.00;92917.00;5070011;28;20048;-71
2023/02/24 08:48:25;;;;;;;36.63;26.15;;;;;;;8.97;100.00;92918.31;5070153;28;20125;-71
2023/02/24 08:50:53;;;;;;;35.33;24.48;;;;;;;9.08;100.00;92915.84;5069917;28;20428;-71
2023/02/24 08:53:20;;;;;;;26.70;18.95;;;;;;;9.20;100.00;92915.97;5069901;28;20448;-71
2023/02/24 08:55:50;;;;;;;39.15;26.30;;;;;;;9.31;100.00;92922.19;5069463;28;20089;-72
2023/02/24 08:58:18;;;;;;;44.17;27.75;;;;;;;9.38;100.00;92919.59;5056815;28;20503;-71
2023/02/24 09:00:52;;;;;;;34.20;21.35;;;;;;;9.45;100.00;92925.44;5069350;28;20447;-72
2023/02/24 09:03:27;;;;;;;37.28;22.65;;;;;;;9.52;100.00;92916.91;5045006;28;20160;-72
2023/02/24 09:06:03;;;;;;;26.13;19.63;;;;;;;9.47;100.00;92913.22;5070150;28;20381;-72
2023/02/24 09:08:32;;;;;;;28.70;18.42;;;;;;;9.48;100.00;92917.34;5069789;28;20049;-71
2023/02/24 09:11:01;;;;;;;35.55;25.08;;;;;;;9.58;100.00;92914.31;5069316;28;20095;-72
2023/02/24 09:13:33;;;;;;;62.45;36.60;;;;;;;9.56;100.00;92906.03;5069613;28;20048;-72
2023/02/24 09:16:03;;;;;;;46.30;28.75;;;;;;;9.70;100.00;92914.41;5069053;28;20554;-72
2023/02/24 09:18:37;;;;;;;40.20;25.35;;;;;;;9.74;100.00;92912.19;5069564;28;20094;-72
2023/02/24 09:23:59;;;;;;;42.00;24.65;;;;;;;10.08;100.00;92917.78;5068515;28;20086;-72
2023/02/24 09:26:31;;;;;;;57.25;34.97;;;;;;;10.08;100.00;92907.53;5069111;28;20091;-72
2023/02/24 09:28:58;;;;;;;55.55;31.88;;;;;;;10.24;100.00;92921.56;5069124;28;20055;-72
2023/02/24 09:31:39;;;;;;;27.90;19.00;;;;;;;10.32;100.00;92922.28;5069507;28;20048;-72
2023/02/24 09:34:09;;;;;;;33.67;21.33;;;;;;;10.27;100.00;92916.00;5069243;28;20055;-72
2023/02/24 09:36:43;;;;;;;38.47;22.85;;;;;;;10.32;100.00;92914.59;5069186;28;20048;-72
2023/02/24 09:39:13;;;;;;;54.97;31.60;;;;;;;10.48;100.00;92918.38;5069247;28;20053;-72
2023/02/24 09:42:02;;;;;;;28.23;18.33;;;;;;;10.53;100.00;92910.81;5069310;28;20051;-72
2023/02/24 09:44:33;;;;;;;30.98;19.65;;;;;;;10.61;100.00;92904.59;5069345;28;20455;-72
2023/02/24 09:47:12;;;;;;;46.97;26.17;;;;;;;10.68;100.00;92906.09;5069194;28;20040;-72
2023/02/24 09:49:55;;;;;;;24.25;16.13;;;;;;;10.67;100.00;92906.28;5069254;28;20049;-72
2023/02/24 09:52:38;;;;;;;45.78;26.08;;;;;;;10.69;100.00;92899.13;5069268;28;20394;-72
2023/02/24 09:55:23;;;;;;;27.33;16.75;;;;;;;10.68;100.00;92905.28;5069217;28;20044;-72
2023/02/24 09:58:22;;;;;;;25.33;16.23;;;;;;;10.69;100.00;92899.94;5068806;28;20052;-72
2023/02/24 10:00:58;;;;;;;26.45;16.45;;;;;;;10.68;100.00;92889.88;5068908;28;20062;-72
2023/02/24 10:03:46;;;;;;;27.83;17.15;;;;;;;10.64;100.00;92894.66;5068695;28;20044;-72
2023/02/24 10:06:19;;;;;;;46.28;25.45;;;;;;;10.65;100.00;92885.19;5068967;28;20140;-72
2023/02/24 10:08:52;;;;;;;20.75;14.45;;;;;;;10.63;100.00;92879.47;5068398;28;20483;-72
2023/02/24 10:11:31;;;;;;;21.58;15.25;;;;;;;10.59;100.00;92884.25;5068811;28;20048;-72
2023/02/24 10:14:04;;;;;;;27.52;16.98;;;;;;;10.63;100.00;92874.31;5068345;28;20041;-72
2023/02/24 10:16:40;;;;;;;27.48;16.33;;;;;;;10.61;100.00;92872.00;5069346;28;20045;-72
2023/02/24 10:19:26;;;;;;;35.88;19.02;;;;;;;10.59;100.00;92868.09;5068440;28;20081;-71
2023/02/24 10:22:02;;;;;;;39.47;20.42;;;;;;;10.59;100.00;92861.16;5068587;28;20048;-72
2023/02/24 10:24:36;;;;;;;89.72;35.60;;;;;;;10.58;100.00;92854.44;5069143;28;20037;-72
2023/02/24 10:27:10;;;;;;;106.75;36.72;;;;;;;10.65;100.00;92860.28;5068484;28;20044;-72
2023/02/24 10:30:03;;;;;;;45.75;21.38;;;;;;;10.77;100.00;92852.59;5068769;28;20122;-72
2023/02/24 10:32:40;;;;;;;63.45;24.80;;;;;;;10.78;100.00;92843.13;5069060;28;20045;-72
2023/02/24 10:35:15;;;;;;;31.40;17.60;;;;;;;10.80;100.00;92841.88;5068342;28;20052;-72
2023/02/24 10:37:42;;;;;;;45.95;19.42;;;;;;;10.91;100.00;92832.63;5060127;28;20041;-72
2023/02/24 10:40:12;;;;;;;79.40;29.27;;;;;;;10.97;100.00;92836.09;5070376;28;20588;-72
2023/02/24 10:42:44;;;;;;;22.42;14.93;;;;;;;10.94;100.00;92824.47;5072727;28;20053;-71
2023/02/24 10:45:17;;;;;;;101.07;33.22;;;;;;;11.04;100.00;92828.31;5072619;28;20097;-72
2023/02/24 10:47:55;;;;;;;28.67;16.33;;;;;;;11.11;100.00;92820.50;5072133;28;20058;-72
2023/02/24 10:50:26;;;;;;;30.08;15.32;;;;;;;11.15;100.00;92817.25;5072514;28;20040;-72
2023/02/24 10:53:24;;;;;;;32.97;17.63;;;;;;;11.21;100.00;92816.34;5071621;28;20044;-71
2023/02/24 10:56:13;;;;;;;49.92;20.00;;;;;;;11.38;100.00;92815.69;5072305;28;20041;-72
2023/02/24 10:58:48;;;;;;;34.88;16.77;;;;;;;11.46;100.00;92804.28;5072484;28;20044;-72
2023/02/24 11:01:19;;;;;;;157.82;44.60;;;;;;;11.81;100.00;92805.25;5071731;28;20044;-72
2023/02/24 11:04:01;;;;;;;158.15;46.53;;;;;;;12.11;100.00;92814.59;5071668;28;20063;-72
2023/02/24 11:06:41;;;;;;;115.50;35.50;;;;;;;12.39;100.00;92795.03;5044244;28;20041;-72
2023/02/24 11:09:30;;;;;;;29.55;14.52;;;;;;;12.55;100.00;92799.44;5059529;28;20110;-72
2023/02/24 11:17:37;;;;;;;22.08;12.80;;;;;;;12.73;100.00;92782.19;5071871;28;20101;-72
2023/02/24 11:20:16;;;;;;;22.83;12.60;;;;;;;12.91;100.00;92778.59;5071674;28;20094;-72
2023/02/24 11:22:47;;;;;;;43.60;18.45;;;;;;;13.19;100.00;92778.78;5071527;28;20487;-72
2023/02/24 11:25:21;;;;;;;60.75;24.08;;;;;;;13.33;97.76;92787.72;5071910;28;20155;-72
2023/02/24 11:27:48;;;;;;;53.42;21.95;;;;;;;13.47;96.76;92775.31;5071967;28;20067;-72
2023/02/24 11:30:24;;;;;;;28.15;13.60;;;;;;;13.41;96.34;92772.84;5071499;28;20053;-72
2023/02/24 11:33:01;;;;;;;;;;;;;;;13.43;96.37;92765.69;5071757;28;20493;-72
2023/02/24 11:35:33;;;;;;;47.53;22.20;;;;;;;13.49;97.48;92762.16;5071001;28;19920;-72
2023/02/24 11:38:11;;;;;;;99.22;40.58;;;;;;;13.59;95.15;92762.31;5058172;28;20045;-72
2023/02/24 11:40:42;;;;;;;76.07;32.08;;;;;;;13.52;90.93;92753.94;5059295;28;20053;-72
2023/02/24 11:43:17;;;;;;;20.92;11.93;;;;;;;13.30;91.29;92757.25;5071136;28;20052;-72
2023/02/24 11:45:47;;;;;;;43.42;21.27;;;;;;;13.26;92.46;92750.22;5071739;28;20121;-72
2023/02/24 11:48:19;;;;;;;28.63;15.65;;;;;;;13.23;91.73;92736.78;5070063;28;20048;-72
2023/02/24 11:50:50;;;;;;;42.05;20.50;;;;;;;13.24;91.87;92740.13;5071148;28;20451;-72
2023/02/24 11:53:29;;;;;;;32.28;18.13;;;;;;;13.19;88.60;92730.53;5070970;28;20102;-72